createdAt,value
2022-08-03T00:01:37.305Z,4.40
2022-08-03T00:04:39.687Z,4.30
2022-08-03T00:07:42.081Z,4.63
2022-08-03T00:10:44.659Z,4.40
2022-08-03T00:13:47.129Z,4.93
2022-08-03T00:16:49.482Z,4.40
2022-08-03T00:19:51.843Z,4.72
2022-08-03T00:22:54.347Z,4.80
2022-08-03T00:25:57.340Z,4.63
2022-08-03T00:28:59.813Z,5.70
2022-08-03T00:32:02.195Z,4.43
2022-08-03T00:35:08.083Z,4.90
2022-08-03T00:38:11.557Z,4.45
2022-08-03T00:41:15.691Z,4.97
2022-08-03T00:44:18.198Z,5.05
2022-08-03T00:47:20.607Z,5.20
2022-08-03T00:50:24.686Z,5.10
2022-08-03T00:53:27.925Z,5.15
2022-08-03T00:56:30.423Z,5.82
2022-08-03T00:59:32.840Z,5.50
2022-08-03T01:02:35.981Z,5.30
2022-08-03T01:06:07.473Z,5.45
2022-08-03T01:09:16.847Z,5.30
2022-08-03T01:12:33.204Z,5.68
2022-08-03T01:15:49.880Z,5.43
2022-08-03T01:19:16.155Z,5.40
2022-08-03T01:22:37.075Z,5.50
2022-08-03T01:25:54.430Z,5.93
2022-08-03T01:29:08.974Z,5.57
2022-08-03T01:33:02.687Z,5.57
2022-08-03T01:35:43.118Z,5.40
2022-08-03T01:38:52.183Z,5.53
2022-08-03T01:42:00.887Z,6.05
2022-08-03T01:45:05.297Z,6.03
2022-08-03T01:48:09.316Z,5.88
2022-08-03T01:51:13.510Z,6.00
2022-08-03T01:54:17.498Z,5.80
2022-08-03T01:57:22.510Z,6.40
2022-08-03T02:00:26.887Z,6.32
2022-08-03T02:03:32.367Z,6.47
2022-08-03T02:07:00.517Z,6.17
2022-08-03T02:10:01.555Z,6.53
2022-08-03T02:13:08.418Z,6.38
2022-08-03T02:16:12.815Z,6.28
2022-08-03T02:19:17.393Z,6.68
2022-08-03T02:22:22.067Z,6.73
2022-08-03T02:25:25.094Z,6.38
2022-08-03T02:28:35.804Z,6.82
2022-08-03T02:31:39.826Z,6.82
2022-08-03T02:34:47.545Z,6.57
2022-08-03T02:37:58.086Z,7.17
2022-08-03T02:41:07.314Z,7.05
2022-08-03T02:44:12.144Z,7.47
2022-08-03T02:47:16.992Z,7.13
2022-08-03T02:50:21.983Z,7.18
2022-08-03T02:53:26.716Z,6.97
2022-08-03T02:56:30.205Z,7.05
2022-08-03T02:59:34.283Z,7.40
2022-08-03T03:02:38.040Z,7.38
2022-08-03T03:05:55.075Z,7.65
2022-08-03T03:09:00.464Z,7.33
2022-08-03T03:12:04.205Z,7.97
2022-08-03T03:15:06.990Z,7.45
2022-08-03T03:18:10.795Z,7.50
2022-08-03T03:21:16.442Z,7.55
2022-08-03T03:24:21.107Z,8.27
2022-08-03T03:27:23.704Z,8.10
2022-08-03T03:30:27.782Z,8.10
2022-08-03T03:33:30.333Z,8.45
2022-08-03T03:36:32.777Z,8.18
2022-08-03T03:39:36.479Z,7.63
2022-08-03T03:42:38.996Z,8.02
2022-08-03T03:45:43.059Z,8.80
2022-08-03T03:48:45.579Z,8.70
2022-08-03T03:51:48.079Z,8.80
2022-08-03T03:54:50.501Z,7.50
2022-08-03T03:57:52.948Z,7.65
2022-08-03T04:00:55.811Z,8.25
2022-08-03T04:03:58.911Z,8.30
2022-08-03T04:07:19.820Z,7.60
2022-08-03T04:10:46.582Z,8.47
2022-08-03T04:13:57.080Z,8.82
2022-08-03T04:17:08.808Z,8.73
2022-08-03T04:20:14.054Z,8.30
2022-08-03T04:23:19.887Z,8.75
2022-08-03T04:26:24.563Z,9.07
2022-08-03T04:29:29.075Z,14.60
2022-08-03T04:32:32.114Z,13.88
2022-08-03T04:36:01.926Z,10.13
2022-08-03T04:39:16.924Z,9.88
2022-08-03T04:42:22.477Z,9.50
2022-08-03T04:45:25.925Z,9.00
2022-08-03T04:48:29.204Z,9.35
2022-08-03T04:51:32.503Z,8.50
2022-08-03T04:54:50.744Z,8.55
2022-08-03T04:57:53.632Z,8.40
2022-08-03T05:00:56.034Z,8.77
2022-08-03T05:03:58.606Z,8.55
2022-08-03T05:07:00.972Z,8.20
2022-08-03T05:10:16.258Z,9.38
2022-08-03T05:13:19.307Z,9.23
2022-08-03T05:16:21.796Z,9.07
2022-08-03T05:19:25.057Z,8.90
2022-08-03T05:22:27.545Z,9.13
2022-08-03T05:25:30.594Z,8.70
2022-08-03T05:28:33.309Z,9.03
2022-08-03T05:31:35.708Z,8.77
2022-08-03T05:34:38.165Z,8.07
2022-08-03T05:37:40.703Z,8.35
2022-08-03T05:41:22.260Z,8.95
2022-08-03T05:44:20.846Z,8.53
2022-08-03T05:47:23.256Z,8.38
2022-08-03T05:50:25.969Z,8.25
2022-08-03T05:53:28.350Z,6.80
2022-08-03T05:56:30.819Z,7.70
2022-08-03T05:59:38.517Z,8.10
2022-08-03T06:02:41.808Z,9.15
2022-08-03T06:05:58.322Z,7.70
2022-08-03T06:09:02.901Z,8.20
2022-08-03T06:12:05.549Z,6.10
2022-08-03T06:15:11.566Z,8.10
2022-08-03T06:18:14.271Z,7.80
2022-08-03T06:21:16.692Z,8.63
2022-08-03T06:24:19.088Z,7.05
2022-08-03T06:27:36.610Z,8.02
2022-08-03T06:30:40.858Z,9.23
2022-08-03T06:34:31.268Z,8.13
2022-08-03T06:37:05.896Z,8.00
2022-08-03T06:40:08.889Z,8.18
2022-08-03T06:43:16.249Z,7.32
2022-08-03T06:46:19.292Z,7.97
2022-08-03T06:49:21.863Z,8.10
2022-08-03T06:52:37.576Z,8.38
2022-08-03T06:55:42.519Z,7.88
2022-08-03T06:58:45.116Z,7.20
2022-08-03T07:01:47.680Z,7.70
2022-08-03T07:04:50.367Z,7.78
2022-08-03T07:07:57.657Z,7.28
2022-08-03T07:11:00.118Z,7.30
2022-08-03T07:14:02.613Z,7.60
2022-08-03T07:17:11.674Z,7.50
2022-08-03T07:20:15.296Z,7.45
2022-08-03T07:23:18.963Z,9.13
2022-08-03T07:26:21.915Z,7.20
2022-08-03T07:29:24.403Z,7.00
2022-08-03T07:32:28.521Z,6.80
2022-08-03T07:35:30.932Z,7.20
2022-08-03T07:38:36.166Z,6.85
2022-08-03T07:41:38.668Z,6.75
2022-08-03T07:44:44.251Z,6.88
2022-08-03T07:47:53.519Z,6.37
2022-08-03T07:50:56.557Z,6.43
2022-08-03T07:54:00.794Z,6.88
2022-08-03T07:57:03.471Z,6.03
2022-08-03T08:00:11.649Z,6.38
2022-08-03T08:03:17.557Z,5.87
2022-08-03T08:06:20.030Z,6.15
2022-08-03T08:09:23.476Z,5.95
2022-08-03T08:12:25.890Z,6.10
2022-08-03T08:15:28.340Z,5.40
2022-08-03T08:18:31.686Z,5.20
2022-08-03T08:21:53.214Z,5.15
2022-08-03T08:24:56.404Z,5.32
2022-08-03T08:28:29.285Z,5.40
2022-08-03T08:31:26.782Z,4.70
2022-08-03T08:34:29.147Z,4.30
2022-08-03T08:37:35.451Z,4.72
2022-08-03T08:40:39.684Z,4.68
2022-08-03T08:43:43.074Z,4.57
2022-08-03T08:46:45.726Z,5.00
2022-08-03T08:50:08.949Z,4.80
2022-08-03T08:53:17.675Z,4.60
2022-08-03T08:56:25.791Z,4.53
2022-08-03T08:59:49.105Z,4.43
2022-08-03T09:02:51.177Z,4.32
2022-08-03T09:05:56.160Z,4.60
2022-08-03T09:08:58.919Z,4.72
2022-08-03T09:12:27.149Z,4.00
2022-08-03T09:15:24.975Z,3.70
2022-08-03T09:18:32.886Z,4.28
2022-08-03T09:21:35.613Z,4.33
2022-08-03T09:24:43.452Z,4.30
2022-08-03T09:27:47.152Z,4.38
2022-08-03T09:31:00.639Z,4.93
2022-08-03T09:34:05.982Z,4.40
2022-08-03T09:37:19.665Z,4.53
2022-08-03T09:40:36.313Z,4.85
2022-08-03T09:43:46.830Z,4.80
2022-08-03T09:46:51.457Z,4.55
2022-08-03T09:50:02.459Z,4.40
2022-08-03T09:53:05.299Z,4.50
2022-08-03T09:56:35.630Z,4.18
2022-08-03T09:59:31.942Z,4.60
2022-08-03T10:02:34.531Z,4.65
2022-08-03T10:05:38.370Z,4.55
2022-08-03T10:08:41.010Z,4.33
2022-08-03T10:11:46.808Z,4.20
2022-08-03T10:14:49.413Z,4.35
2022-08-03T10:17:51.778Z,4.20
2022-08-03T10:21:02.065Z,4.30
2022-08-03T10:24:06.924Z,3.90
2022-08-03T10:27:13.416Z,4.45
2022-08-03T10:30:17.188Z,4.07
2022-08-03T10:33:50.926Z,4.13
2022-08-03T10:36:45.692Z,4.28
2022-08-03T10:39:53.635Z,4.10
2022-08-03T10:43:02.048Z,4.00
2022-08-03T10:46:08.523Z,4.13
2022-08-03T10:49:34.544Z,3.60
2022-08-03T10:53:07.968Z,3.55
2022-08-03T10:56:50.684Z,3.50
2022-08-03T10:59:55.862Z,3.20
2022-08-03T11:03:06.937Z,5.90
2022-08-03T11:06:20.772Z,3.50
2022-08-03T11:09:23.168Z,3.53
2022-08-03T11:12:31.126Z,3.43
2022-08-03T11:15:35.865Z,3.33
2022-08-03T11:18:56.495Z,3.90
2022-08-03T11:21:59.266Z,3.65
2022-08-03T11:25:01.868Z,3.45
2022-08-03T11:28:29.170Z,3.60
2022-08-03T11:31:49.463Z,3.40
2022-08-03T11:35:17.340Z,3.80
2022-08-03T11:38:24.533Z,3.33
2022-08-03T11:41:43.369Z,3.55
2022-08-03T11:44:49.022Z,3.90
2022-08-03T11:47:55.403Z,3.65
2022-08-03T11:50:57.872Z,3.80
2022-08-03T11:54:05.908Z,3.72
2022-08-03T11:57:08.315Z,3.30
2022-08-03T12:00:25.865Z,3.93
2022-08-03T12:03:33.005Z,4.10
2022-08-03T12:06:54.778Z,3.88
2022-08-03T12:10:12.237Z,3.70
2022-08-03T12:14:08.836Z,3.90
2022-08-03T12:16:38.097Z,4.27
2022-08-03T12:19:44.093Z,3.90
2022-08-03T12:22:46.625Z,3.58
2022-08-03T12:25:49.582Z,3.92
2022-08-03T12:28:52.503Z,3.50
2022-08-03T12:31:55.932Z,3.60
2022-08-03T12:35:04.577Z,3.80
2022-08-03T12:38:07.489Z,4.07
2022-08-03T12:41:16.664Z,3.60
2022-08-03T12:44:28.993Z,4.00
2022-08-03T12:47:50.160Z,4.17
2022-08-03T12:50:53.723Z,4.00
2022-08-03T12:53:57.712Z,3.90
2022-08-03T12:57:08.417Z,3.83
2022-08-03T13:00:28.730Z,4.40
2022-08-03T13:03:49.738Z,4.27
2022-08-03T13:07:05.800Z,4.32
2022-08-03T13:10:10.855Z,4.28
2022-08-03T13:13:13.597Z,4.57
2022-08-03T13:16:19.303Z,4.35
2022-08-03T13:19:22.000Z,4.70
2022-08-03T13:22:29.075Z,4.72
2022-08-03T13:25:31.570Z,5.03
2022-08-03T13:28:34.120Z,4.78
2022-08-03T13:31:36.581Z,4.38
2022-08-03T13:34:53.099Z,4.53
2022-08-03T13:37:55.573Z,4.80
2022-08-03T13:41:00.788Z,4.78
2022-08-03T13:44:29.269Z,4.70
2022-08-03T13:47:30.003Z,4.90
2022-08-03T13:50:33.327Z,5.10
2022-08-03T13:53:35.844Z,4.82
2022-08-03T13:56:38.295Z,3.60
2022-08-03T13:59:40.748Z,3.60
2022-08-03T14:02:43.260Z,5.20
2022-08-03T14:05:45.944Z,4.87
2022-08-03T14:08:48.692Z,5.22
2022-08-03T14:12:07.620Z,5.15
2022-08-03T14:15:13.057Z,5.10
2022-08-03T14:18:28.871Z,4.90
2022-08-03T14:21:36.018Z,3.97
2022-08-03T14:24:38.429Z,5.45
2022-08-03T14:27:41.085Z,4.82
2022-08-03T14:30:44.531Z,5.03
2022-08-03T14:33:46.881Z,5.28
2022-08-03T14:36:49.266Z,5.20
2022-08-03T14:40:02.172Z,5.13
2022-08-03T14:43:04.733Z,5.25
2022-08-03T14:46:07.157Z,4.63
2022-08-03T14:50:36.874Z,5.53
2022-08-03T14:52:32.618Z,5.53
2022-08-03T14:55:38.974Z,5.55
2022-08-03T14:58:53.457Z,5.97
2022-08-03T15:02:02.175Z,6.05
2022-08-03T15:05:07.241Z,6.17
2022-08-03T15:08:09.737Z,5.53
2022-08-03T15:11:12.187Z,5.50
2022-08-03T15:14:15.001Z,4.20
2022-08-03T15:17:17.942Z,5.10
2022-08-03T15:20:39.561Z,5.10
2022-08-03T15:23:46.628Z,5.27
2022-08-03T15:26:50.504Z,3.88
2022-08-03T15:30:07.089Z,3.20
2022-08-03T15:33:13.068Z,3.70
2022-08-03T15:36:15.555Z,4.88
2022-08-03T15:39:17.948Z,4.67
2022-08-03T15:42:20.546Z,4.20
2022-08-03T15:45:27.881Z,3.90
2022-08-03T15:48:38.053Z,4.53
2022-08-03T15:51:40.671Z,4.30
2022-08-03T15:54:43.110Z,4.60
2022-08-03T15:59:09.885Z,4.07
2022-08-03T16:01:08.291Z,3.30
2022-08-03T16:04:10.776Z,3.70
2022-08-03T16:07:15.726Z,3.80
2022-08-03T16:10:18.860Z,3.80
2022-08-03T16:13:21.696Z,3.50
2022-08-03T16:16:44.102Z,3.80
2022-08-03T16:19:46.501Z,3.67
2022-08-03T16:22:49.059Z,3.45
2022-08-03T16:25:51.967Z,4.00
2022-08-03T16:28:55.095Z,3.65
2022-08-03T16:31:57.571Z,3.28
2022-08-03T16:35:01.216Z,3.33
2022-08-03T16:38:09.303Z,3.55
2022-08-03T16:41:12.106Z,3.33
2022-08-03T16:44:14.489Z,3.55
2022-08-03T16:47:22.320Z,3.50
2022-08-03T16:50:25.244Z,3.40
2022-08-03T16:53:51.767Z,3.95
2022-08-03T16:56:50.027Z,3.80
2022-08-03T16:59:52.536Z,3.40
2022-08-03T17:02:58.528Z,3.60
2022-08-03T17:06:01.766Z,3.70
2022-08-03T17:09:10.124Z,3.63
2022-08-03T17:12:13.576Z,3.60
2022-08-03T17:15:16.375Z,3.65
2022-08-03T17:18:21.803Z,4.57
2022-08-03T17:21:30.961Z,3.75
2022-08-03T17:24:40.912Z,3.65
2022-08-03T17:28:48.656Z,3.87
2022-08-03T17:31:23.517Z,3.50
2022-08-03T17:34:33.703Z,3.13
2022-08-03T17:37:58.263Z,3.42
2022-08-03T17:40:58.530Z,3.03
2022-08-03T17:44:15.590Z,3.40
2022-08-03T17:47:21.460Z,3.58
2022-08-03T17:50:28.960Z,3.15
2022-08-03T17:53:37.484Z,15.57
2022-08-03T17:57:21.730Z,5.90
2022-08-03T18:00:45.678Z,4.17
2022-08-03T18:03:58.490Z,3.67
2022-08-03T18:07:11.682Z,3.90
2022-08-03T18:10:25.741Z,3.47
2022-08-03T18:13:40.728Z,3.17
2022-08-03T18:16:57.737Z,3.50
2022-08-03T18:20:09.806Z,3.78
2022-08-03T18:23:24.881Z,3.60
2022-08-03T18:26:28.536Z,3.38
2022-08-03T18:29:31.177Z,3.70
2022-08-03T18:32:34.309Z,3.63
2022-08-03T18:35:53.955Z,3.55
2022-08-03T18:38:58.395Z,7.82
2022-08-03T18:42:02.768Z,5.90
2022-08-03T18:45:55.084Z,4.75
2022-08-03T18:48:47.517Z,3.70
2022-08-03T18:52:00.989Z,3.85
2022-08-03T18:55:20.875Z,3.55
2022-08-03T18:58:42.808Z,3.45
2022-08-03T19:02:00.826Z,3.78
2022-08-03T19:05:09.401Z,3.70
2022-08-03T19:08:17.082Z,3.65
2022-08-03T19:12:12.526Z,6.43
2022-08-03T19:15:12.973Z,4.93
2022-08-03T19:18:21.055Z,3.58
2022-08-03T19:21:26.128Z,3.67
2022-08-03T19:24:31.071Z,4.00
2022-08-03T19:27:35.161Z,3.85
2022-08-03T19:30:40.657Z,3.75
2022-08-03T19:33:56.192Z,4.13
2022-08-03T19:37:00.935Z,4.40
2022-08-03T19:40:05.591Z,4.47
2022-08-03T19:43:33.303Z,3.70
2022-08-03T19:46:57.826Z,3.80
2022-08-03T19:50:14.086Z,4.18
2022-08-03T19:53:17.431Z,3.90
2022-08-03T19:56:24.171Z,4.00
2022-08-03T19:59:27.556Z,3.83
2022-08-03T20:02:29.967Z,3.70
2022-08-03T20:05:45.174Z,3.90
2022-08-03T20:09:03.837Z,3.70
2022-08-03T20:12:11.659Z,3.70
2022-08-03T20:15:22.156Z,3.90
2022-08-03T20:18:39.163Z,3.80
2022-08-03T20:21:45.379Z,3.63
2022-08-03T20:24:53.017Z,3.60
2022-08-03T20:28:13.972Z,4.10
2022-08-03T20:31:17.763Z,3.30
2022-08-03T20:34:20.118Z,3.33
2022-08-03T20:37:22.545Z,3.25
2022-08-03T20:40:27.504Z,3.80
2022-08-03T20:43:30.222Z,3.90
2022-08-03T20:46:44.112Z,3.20
2022-08-03T20:49:56.910Z,3.38
2022-08-03T20:53:02.896Z,3.63
2022-08-03T20:56:09.687Z,3.30
2022-08-03T20:59:14.808Z,3.20
2022-08-03T21:02:19.167Z,3.67
2022-08-03T21:05:50.997Z,3.30
2022-08-03T21:09:04.082Z,3.92
2022-08-03T21:12:07.933Z,3.33
2022-08-03T21:16:01.147Z,3.30
2022-08-03T21:19:03.521Z,3.47
2022-08-03T21:22:08.569Z,3.28
2022-08-03T21:25:14.507Z,3.80
2022-08-03T21:28:27.364Z,4.30
2022-08-03T21:31:30.202Z,3.80
2022-08-03T21:34:35.401Z,3.80
2022-08-03T21:37:42.998Z,4.32
2022-08-03T21:40:47.414Z,4.10
2022-08-03T21:43:51.772Z,4.07
2022-08-03T21:46:55.406Z,4.30
2022-08-03T21:50:08.288Z,4.03
2022-08-03T21:53:12.316Z,4.45
2022-08-03T21:56:19.028Z,4.50
2022-08-03T21:59:23.306Z,3.80
2022-08-03T22:02:32.207Z,4.30
2022-08-03T22:05:43.538Z,4.63
2022-08-03T22:08:47.984Z,3.90
2022-08-03T22:11:54.060Z,4.32
2022-08-03T22:15:00.801Z,3.77
2022-08-03T22:18:04.871Z,4.20
2022-08-03T22:21:09.829Z,4.03
2022-08-03T22:24:13.146Z,3.78
2022-08-03T22:27:33.287Z,3.60
2022-08-03T22:30:36.252Z,3.67
2022-08-03T22:33:39.649Z,3.67
2022-08-03T22:36:42.710Z,4.40
2022-08-03T22:39:45.612Z,4.10
2022-08-03T22:42:52.459Z,4.10
2022-08-03T22:46:09.292Z,4.40
2022-08-03T22:49:15.264Z,4.70
2022-08-03T22:52:18.058Z,4.30
2022-08-03T22:55:24.921Z,4.28
2022-08-03T22:58:27.520Z,4.28
2022-08-03T23:01:35.379Z,4.70
2022-08-03T23:04:41.144Z,4.78
2022-08-03T23:07:45.640Z,4.85
2022-08-03T23:10:50.048Z,4.20
2022-08-03T23:13:55.499Z,4.57
2022-08-03T23:17:02.818Z,4.60
2022-08-03T23:20:07.826Z,4.30
2022-08-03T23:23:11.112Z,4.47
2022-08-03T23:26:13.831Z,4.82
2022-08-03T23:29:17.198Z,4.95
2022-08-03T23:32:25.563Z,4.27
2022-08-03T23:36:29.595Z,4.72
2022-08-03T23:39:09.280Z,4.80
2022-08-03T23:42:15.014Z,5.07
2022-08-03T23:45:20.750Z,4.68
2022-08-03T23:48:23.212Z,5.03
2022-08-03T23:52:10.043Z,4.30
2022-08-03T23:55:32.624Z,4.53
2022-08-03T23:58:53.085Z,4.50
